createdAt,value
2022-11-28T00:01:20.734Z,78.70
2022-11-28T00:03:50.147Z,78.70
2022-11-28T00:06:18.589Z,79.60
2022-11-28T00:08:46.551Z,79.70
2022-11-28T00:11:16.088Z,79.30
2022-11-28T00:13:44.441Z,80.30
2022-11-28T00:16:16.797Z,79.60
2022-11-28T00:18:45.056Z,78.80
2022-11-28T00:21:16.521Z,78.60
2022-11-28T00:23:46.017Z,79.60
2022-11-28T00:26:20.551Z,80.00
2022-11-28T00:28:49.349Z,79.40
2022-11-28T00:31:19.683Z,79.50
2022-11-28T00:33:48.145Z,79.80
2022-11-28T00:36:18.244Z,78.80
2022-11-28T00:38:46.599Z,79.40
2022-11-28T00:41:16.148Z,79.80
2022-11-28T00:43:45.722Z,79.80
2022-11-28T00:46:14.912Z,79.70
2022-11-28T00:48:43.322Z,79.40
2022-11-28T00:51:13.187Z,79.50
2022-11-28T00:53:44.570Z,79.20
2022-11-28T00:56:14.484Z,79.80
2022-11-28T00:58:43.164Z,79.70
2022-11-28T01:01:12.535Z,79.50
2022-11-28T01:03:40.805Z,79.10
2022-11-28T01:06:10.166Z,79.40
2022-11-28T01:08:38.604Z,79.00
2022-11-28T01:11:12.402Z,78.70
2022-11-28T01:13:40.638Z,79.50
2022-11-28T01:16:09.053Z,79.70
2022-11-28T01:18:37.394Z,79.40
2022-11-28T01:21:05.481Z,79.40
2022-11-28T01:23:33.447Z,79.20
2022-11-28T01:26:02.280Z,79.90
2022-11-28T01:28:31.662Z,79.80
2022-11-28T01:31:04.886Z,79.10
2022-11-28T01:33:32.984Z,79.60
2022-11-28T01:36:01.264Z,79.50
2022-11-28T01:38:30.131Z,79.60
2022-11-28T01:40:58.292Z,78.80
2022-11-28T01:43:27.059Z,79.10
2022-11-28T01:45:56.938Z,78.70
2022-11-28T01:48:27.550Z,79.30
2022-11-28T01:51:01.197Z,78.90
2022-11-28T01:53:31.627Z,78.70
2022-11-28T01:56:03.002Z,78.30
2022-11-28T01:58:34.160Z,79.40
2022-11-28T02:01:04.507Z,78.80
2022-11-28T02:03:37.143Z,78.60
2022-11-28T02:06:05.371Z,79.30
2022-11-28T02:08:34.885Z,78.60
2022-11-28T02:11:24.141Z,78.80
2022-11-28T02:14:04.513Z,79.00
2022-11-28T02:16:47.007Z,79.00
2022-11-28T02:19:49.706Z,78.90
2022-11-28T02:22:23.695Z,78.60
2022-11-28T02:25:08.709Z,78.80
2022-11-28T02:28:16.113Z,79.10
2022-11-28T02:30:58.742Z,79.10
2022-11-28T02:33:32.926Z,79.10
2022-11-28T02:36:10.502Z,78.60
2022-11-28T02:38:52.828Z,78.50
2022-11-28T02:41:28.906Z,78.80
2022-11-28T02:44:04.917Z,79.60
2022-11-28T02:46:42.085Z,79.60
2022-11-28T02:49:16.903Z,79.40
2022-11-28T02:51:48.400Z,79.60
2022-11-28T02:54:19.138Z,79.60
2022-11-28T02:56:49.776Z,78.90
2022-11-28T02:59:34.148Z,79.00
2022-11-28T03:02:03.164Z,79.30
2022-11-28T03:04:45.762Z,79.50
2022-11-28T03:07:24.340Z,79.10
2022-11-28T03:10:08.441Z,79.60
2022-11-28T03:12:51.840Z,79.90
2022-11-28T03:15:23.625Z,79.90
2022-11-28T03:17:57.830Z,79.80
2022-11-28T03:20:37.773Z,79.80
2022-11-28T03:23:14.749Z,79.90
2022-11-28T03:25:50.956Z,80.00
2022-11-28T03:28:25.615Z,80.10
2022-11-28T03:30:59.422Z,80.10
2022-11-28T03:33:31.140Z,79.70
2022-11-28T03:36:05.196Z,79.90
2022-11-28T03:38:37.509Z,80.00
2022-11-28T03:41:11.484Z,80.50
2022-11-28T03:43:45.087Z,80.30
2022-11-28T03:46:16.963Z,80.20
2022-11-28T03:48:48.433Z,79.30
2022-11-28T03:51:19.542Z,80.00
2022-11-28T03:53:53.336Z,80.30
2022-11-28T03:56:26.065Z,80.50
2022-11-28T03:58:59.163Z,80.70
2022-11-28T04:01:33.086Z,80.30
2022-11-28T04:04:10.717Z,80.40
2022-11-28T04:06:53.438Z,80.50
2022-11-28T04:09:32.066Z,80.50
2022-11-28T04:12:08.774Z,80.40
2022-11-28T04:14:41.098Z,80.60
2022-11-28T04:17:14.141Z,80.40
2022-11-28T04:19:46.283Z,80.60
2022-11-28T04:22:20.753Z,80.30
2022-11-28T04:24:52.679Z,80.60
2022-11-28T04:27:24.362Z,80.50
2022-11-28T04:29:54.968Z,80.90
2022-11-28T04:32:24.435Z,80.20
2022-11-28T04:34:56.289Z,80.20
2022-11-28T04:37:28.556Z,79.80
2022-11-28T04:39:57.840Z,79.50
2022-11-28T04:42:31.372Z,80.00
2022-11-28T04:45:03.720Z,81.00
2022-11-28T04:47:31.732Z,80.40
2022-11-28T04:50:00.034Z,80.20
2022-11-28T04:52:35.333Z,80.50
2022-11-28T04:55:08.320Z,80.80
2022-11-28T04:57:39.774Z,80.40
2022-11-28T05:00:10.367Z,81.20
2022-11-28T05:02:39.993Z,80.90
2022-11-28T05:05:11.142Z,80.90
2022-11-28T05:07:40.427Z,81.40
2022-11-28T05:10:09.260Z,81.30
2022-11-28T05:12:37.164Z,80.90
2022-11-28T05:15:05.735Z,80.70
2022-11-28T05:17:37.702Z,80.50
2022-11-28T05:20:09.525Z,80.90
2022-11-28T05:22:37.492Z,81.10
2022-11-28T05:25:08.096Z,81.30
2022-11-28T05:27:36.041Z,80.70
2022-11-28T05:30:04.668Z,80.10
2022-11-28T05:32:33.169Z,80.60
2022-11-28T05:35:01.007Z,81.30
2022-11-28T05:37:28.994Z,81.90
2022-11-28T05:39:56.820Z,81.70
2022-11-28T05:42:28.376Z,81.80
2022-11-28T05:44:56.235Z,81.50
2022-11-28T05:47:25.236Z,81.90
2022-11-28T05:49:53.124Z,81.60
2022-11-28T05:52:21.006Z,81.40
2022-11-28T05:54:48.890Z,81.00
2022-11-28T05:57:16.850Z,80.00
2022-11-28T05:59:46.125Z,80.60
2022-11-28T06:02:14.026Z,80.50
2022-11-28T06:04:42.183Z,80.40
2022-11-28T06:07:10.145Z,80.10
2022-11-28T06:09:38.089Z,80.20
2022-11-28T06:12:06.519Z,79.80
2022-11-28T06:14:34.385Z,79.70
2022-11-28T06:17:03.597Z,80.00
2022-11-28T06:19:31.479Z,80.50
2022-11-28T06:21:59.315Z,80.40
2022-11-28T06:24:27.370Z,80.00
2022-11-28T06:26:56.049Z,80.30
2022-11-28T06:29:23.923Z,80.70
2022-11-28T06:31:51.867Z,80.60
2022-11-28T06:34:21.131Z,80.00
2022-11-28T06:36:49.066Z,80.60
2022-11-28T06:39:18.041Z,80.90
2022-11-28T06:41:46.125Z,81.20
2022-11-28T06:44:15.035Z,81.10
2022-11-28T06:46:43.326Z,81.30
2022-11-28T06:49:12.881Z,81.10
2022-11-28T06:51:42.634Z,80.60
2022-11-28T06:54:10.761Z,80.70
2022-11-28T06:56:40.428Z,81.10
2022-11-28T06:59:08.706Z,80.70
2022-11-28T07:01:36.681Z,80.60
2022-11-28T07:04:04.650Z,81.10
2022-11-28T07:06:32.501Z,81.00
2022-11-28T07:09:01.906Z,80.60
2022-11-28T07:11:31.806Z,80.90
2022-11-28T07:14:02.067Z,80.60
2022-11-28T07:16:32.003Z,80.00
2022-11-28T07:19:00.667Z,80.40
2022-11-28T07:21:29.073Z,80.90
2022-11-28T07:23:57.065Z,80.90
2022-11-28T07:26:26.594Z,81.40
2022-11-28T07:28:56.029Z,81.90
2022-11-28T07:31:26.714Z,82.70
2022-11-28T07:33:55.262Z,82.60
2022-11-28T07:36:25.900Z,83.70
2022-11-28T07:38:56.166Z,83.50
2022-11-28T07:41:26.778Z,83.50
2022-11-28T07:43:58.079Z,83.50
2022-11-28T07:46:27.469Z,83.30
2022-11-28T07:48:55.731Z,83.00
2022-11-28T07:51:24.890Z,83.00
2022-11-28T07:53:52.866Z,82.60
2022-11-28T07:56:22.761Z,83.00
2022-11-28T07:58:50.938Z,83.10
2022-11-28T08:01:22.310Z,83.10
2022-11-28T08:03:51.240Z,83.20
2022-11-28T08:06:21.866Z,83.00
2022-11-28T08:08:50.696Z,82.40
2022-11-28T08:11:20.559Z,81.70
2022-11-28T08:13:48.652Z,82.10
2022-11-28T08:16:18.800Z,81.90
2022-11-28T08:18:49.009Z,81.80
2022-11-28T08:21:18.747Z,81.60
2022-11-28T08:23:46.973Z,81.70
2022-11-28T08:26:16.751Z,81.50
2022-11-28T08:28:45.223Z,81.70
2022-11-28T08:31:15.168Z,80.90
2022-11-28T08:33:43.515Z,81.50
2022-11-28T08:36:14.398Z,81.60
2022-11-28T08:38:47.020Z,81.60
2022-11-28T08:41:24.026Z,82.40
2022-11-28T08:43:52.117Z,81.40
2022-11-28T08:46:22.427Z,80.90
2022-11-28T08:48:52.533Z,80.90
2022-11-28T08:51:24.841Z,81.20
2022-11-28T08:53:59.066Z,80.70
2022-11-28T08:56:27.592Z,80.40
2022-11-28T08:58:55.596Z,80.20
2022-11-28T09:01:25.877Z,79.80
2022-11-28T09:03:54.781Z,78.90
2022-11-28T09:06:25.790Z,79.20
2022-11-28T09:08:54.553Z,80.40
2022-11-28T09:11:23.913Z,80.20
2022-11-28T09:13:52.164Z,80.30
2022-11-28T09:16:20.196Z,80.50
2022-11-28T09:18:48.396Z,80.00
2022-11-28T09:21:16.818Z,79.70
2022-11-28T09:23:46.524Z,79.10
2022-11-28T09:26:16.961Z,80.40
2022-11-28T09:28:45.513Z,80.20
2022-11-28T09:31:15.007Z,79.10
2022-11-28T09:33:43.593Z,79.60
2022-11-28T09:36:13.133Z,79.00
2022-11-28T09:38:41.557Z,78.50
2022-11-28T09:41:32.621Z,77.90
2022-11-28T09:44:04.278Z,78.50
2022-11-28T09:46:35.581Z,77.60
2022-11-28T09:49:10.342Z,78.10
2022-11-28T09:51:48.682Z,78.90
2022-11-28T09:54:22.146Z,78.00
2022-11-28T09:56:52.496Z,77.30
2022-11-28T09:59:25.357Z,77.50
2022-11-28T10:02:05.689Z,77.50
2022-11-28T10:04:42.530Z,74.80
2022-11-28T10:07:19.369Z,75.60
2022-11-28T10:09:54.425Z,74.80
2022-11-28T10:12:39.313Z,75.60
2022-11-28T10:15:28.145Z,75.40
2022-11-28T10:18:08.139Z,75.10
2022-11-28T10:20:40.641Z,74.80
2022-11-28T10:23:15.936Z,74.30
2022-11-28T10:25:50.071Z,75.50
2022-11-28T10:28:23.970Z,74.90
2022-11-28T10:30:58.850Z,74.90
2022-11-28T10:33:30.643Z,74.90
2022-11-28T10:36:00.741Z,74.80
2022-11-28T10:38:30.691Z,74.90
2022-11-28T10:41:05.686Z,74.50
2022-11-28T10:43:44.612Z,74.00
2022-11-28T10:46:26.903Z,75.70
2022-11-28T10:49:04.590Z,74.10
2022-11-28T10:51:39.362Z,74.90
2022-11-28T10:54:24.802Z,75.00
2022-11-28T10:57:02.122Z,73.80
2022-11-28T10:59:45.410Z,74.00
2022-11-28T11:02:22.534Z,73.10
2022-11-28T11:04:50.463Z,74.00
2022-11-28T11:07:29.264Z,73.40
2022-11-28T11:10:01.596Z,72.60
2022-11-28T11:12:32.632Z,73.30
2022-11-28T11:15:16.938Z,74.10
2022-11-28T11:17:44.791Z,73.30
2022-11-28T11:20:35.842Z,73.50
2022-11-28T11:23:13.174Z,73.50
2022-11-28T11:25:52.126Z,73.00
2022-11-28T11:28:45.434Z,72.70
2022-11-28T11:31:21.695Z,73.90
2022-11-28T11:33:53.048Z,72.60
2022-11-28T11:36:27.515Z,73.70
2022-11-28T11:39:07.759Z,72.80
2022-11-28T11:41:35.807Z,72.80
2022-11-28T11:44:29.759Z,71.10
2022-11-28T11:47:02.835Z,73.10
2022-11-28T11:49:33.053Z,72.40
2022-11-28T11:52:05.392Z,73.10
2022-11-28T11:54:33.407Z,71.30
2022-11-28T11:57:30.931Z,69.60
2022-11-28T11:59:54.679Z,70.40
2022-11-28T12:02:32.348Z,70.70
2022-11-28T12:05:05.075Z,70.40
2022-11-28T12:07:39.658Z,70.40
2022-11-28T12:10:13.584Z,70.40
2022-11-28T12:12:42.306Z,71.10
2022-11-28T12:15:18.181Z,71.70
2022-11-28T12:17:59.304Z,71.20
2022-11-28T12:20:36.121Z,70.80
2022-11-28T12:23:22.286Z,70.20
2022-11-28T12:25:54.485Z,70.20
2022-11-28T12:28:37.457Z,70.70
2022-11-28T12:31:13.612Z,68.80
2022-11-28T12:33:52.009Z,69.40
2022-11-28T12:36:27.797Z,70.60
2022-11-28T12:39:15.224Z,69.70
2022-11-28T12:42:09.324Z,70.60
2022-11-28T12:44:52.389Z,70.90
2022-11-28T12:47:27.511Z,71.70
2022-11-28T12:50:03.934Z,71.40
2022-11-28T12:52:40.665Z,72.00
2022-11-28T12:55:33.353Z,70.40
2022-11-28T12:58:08.231Z,70.40
2022-11-28T13:00:49.016Z,70.60
2022-11-28T13:03:29.349Z,69.50
2022-11-28T13:06:05.427Z,70.50
2022-11-28T13:08:56.507Z,70.60
2022-11-28T13:11:44.961Z,69.80
2022-11-28T13:14:22.993Z,69.10
2022-11-28T13:16:52.685Z,69.10
2022-11-28T13:19:35.511Z,69.50
2022-11-28T13:22:11.065Z,69.20
2022-11-28T13:24:44.617Z,69.10
2022-11-28T13:27:22.063Z,69.60
2022-11-28T13:30:00.816Z,70.50
2022-11-28T13:32:36.951Z,69.30
2022-11-28T13:35:06.250Z,70.50
2022-11-28T13:40:35.702Z,69.80
2022-11-28T13:43:08.738Z,70.50
2022-11-28T13:45:39.707Z,70.60
2022-11-28T13:51:32.036Z,69.90
2022-11-28T13:54:45.181Z,69.10
2022-11-28T13:57:24.219Z,70.60
2022-11-28T14:00:00.093Z,70.60
2022-11-28T14:02:37.633Z,70.60
2022-11-28T14:05:23.060Z,70.30
2022-11-28T14:07:55.878Z,70.50
2022-11-28T14:10:57.268Z,70.60
2022-11-28T14:13:52.304Z,71.40
2022-11-28T14:16:34.592Z,72.00
2022-11-28T14:19:17.714Z,71.40
2022-11-28T14:21:59.975Z,71.80
2022-11-28T14:24:42.851Z,71.80
2022-11-28T14:27:21.712Z,72.20
2022-11-28T14:29:53.977Z,72.20
2022-11-28T14:32:32.855Z,71.50
2022-11-28T14:35:01.818Z,70.70
2022-11-28T14:37:57.632Z,70.30
2022-11-28T14:41:02.971Z,70.80
2022-11-28T14:43:32.220Z,71.50
2022-11-28T14:49:18.900Z,72.10
2022-11-28T14:52:38.361Z,72.30
2022-11-28T14:55:16.889Z,72.40
2022-11-28T14:57:58.580Z,73.20
2022-11-28T15:00:28.756Z,72.90
2022-11-28T15:03:11.382Z,73.20
2022-11-28T15:05:46.299Z,73.20
2022-11-28T15:08:58.543Z,73.10
2022-11-28T15:11:42.589Z,73.90
2022-11-28T15:14:21.824Z,74.30
2022-11-28T15:16:53.084Z,75.00
2022-11-28T15:19:26.190Z,74.70
2022-11-28T15:21:56.523Z,75.40
2022-11-28T15:24:30.778Z,76.10
2022-11-28T15:27:17.769Z,76.40
2022-11-28T15:29:54.681Z,76.70
2022-11-28T15:32:23.190Z,77.00
2022-11-28T15:35:00.072Z,77.70
2022-11-28T15:37:31.870Z,78.40
2022-11-28T15:40:01.676Z,79.10
2022-11-28T15:42:32.166Z,79.60
2022-11-28T15:45:01.597Z,80.00
2022-11-28T15:47:29.758Z,79.70
2022-11-28T15:50:03.176Z,80.10
2022-11-28T15:52:32.990Z,80.00
2022-11-28T15:55:00.876Z,80.40
2022-11-28T15:57:32.488Z,80.50
2022-11-28T16:00:00.417Z,80.80
2022-11-28T16:02:32.555Z,81.10
2022-11-28T16:05:07.195Z,81.50
2022-11-28T16:07:40.899Z,82.60
2022-11-28T16:10:22.140Z,82.10
2022-11-28T16:12:51.036Z,82.70
2022-11-28T16:15:20.673Z,83.00
2022-11-28T16:17:48.758Z,82.70
2022-11-28T16:20:22.234Z,82.80
2022-11-28T16:22:51.542Z,83.20
2022-11-28T16:25:23.785Z,83.40
2022-11-28T16:27:53.925Z,83.50
2022-11-28T16:30:34.624Z,83.80
2022-11-28T16:33:02.498Z,84.30
2022-11-28T16:35:32.153Z,84.30
2022-11-28T16:38:17.420Z,84.40
2022-11-28T16:40:45.845Z,84.40
2022-11-28T16:43:22.118Z,84.40
2022-11-28T16:45:59.001Z,84.40
2022-11-28T16:48:29.453Z,84.50
2022-11-28T16:51:32.716Z,84.40
2022-11-28T16:54:17.455Z,83.80
2022-11-28T16:56:45.603Z,84.30
2022-11-28T16:59:15.124Z,84.30
2022-11-28T17:01:44.912Z,84.00
2022-11-28T17:04:21.880Z,84.70
2022-11-28T17:06:50.427Z,84.80
2022-11-28T17:09:20.246Z,85.10
2022-11-28T17:12:03.174Z,84.50
2022-11-28T17:14:31.275Z,84.60
2022-11-28T17:17:01.573Z,85.20
2022-11-28T17:19:29.464Z,85.20
2022-11-28T17:21:59.942Z,84.80
2022-11-28T17:24:34.188Z,85.50
2022-11-28T17:27:02.835Z,85.30
2022-11-28T17:29:30.732Z,85.60
2022-11-28T17:31:59.430Z,85.60
2022-11-28T17:34:30.730Z,85.70
2022-11-28T17:36:59.390Z,85.70
2022-11-28T17:39:28.479Z,85.70
2022-11-28T17:41:58.625Z,85.70
2022-11-28T17:44:28.802Z,85.30
2022-11-28T17:46:58.493Z,85.80
2022-11-28T17:49:26.492Z,86.20
2022-11-28T17:51:56.126Z,86.50
2022-11-28T17:54:25.793Z,86.30
2022-11-28T17:56:54.691Z,85.70
2022-11-28T17:59:26.923Z,85.90
2022-11-28T18:01:55.011Z,86.40
2022-11-28T18:04:22.956Z,86.40
2022-11-28T18:06:50.810Z,86.10
2022-11-28T18:09:18.945Z,86.30
2022-11-28T18:11:47.269Z,86.20
2022-11-28T18:14:19.197Z,85.80
2022-11-28T18:16:49.318Z,85.80
2022-11-28T18:19:17.274Z,85.70
2022-11-28T18:21:45.504Z,85.70
2022-11-28T18:24:13.515Z,86.00
2022-11-28T18:26:41.472Z,85.30
2022-11-28T18:29:09.525Z,85.60
2022-11-28T18:31:37.697Z,85.10
2022-11-28T18:34:08.452Z,85.30
2022-11-28T18:36:38.107Z,85.50
2022-11-28T18:39:08.892Z,85.30
2022-11-28T18:41:36.942Z,85.80
2022-11-28T18:44:08.056Z,85.90
2022-11-28T18:46:36.293Z,85.80
2022-11-28T18:49:04.345Z,85.80
2022-11-28T18:51:34.922Z,86.00
2022-11-28T18:54:04.695Z,85.70
2022-11-28T18:56:32.571Z,85.90
2022-11-28T18:59:00.533Z,86.30
2022-11-28T19:01:30.619Z,86.40
2022-11-28T19:04:00.223Z,86.60
2022-11-28T19:06:28.401Z,86.90
2022-11-28T19:08:59.579Z,86.70
2022-11-28T19:11:28.590Z,86.60
2022-11-28T19:13:56.973Z,86.50
2022-11-28T19:16:26.660Z,87.10
2022-11-28T19:18:54.618Z,86.80
2022-11-28T19:21:24.358Z,86.80
2022-11-28T19:23:52.987Z,87.60
2022-11-28T19:26:24.780Z,87.70
2022-11-28T19:28:52.735Z,87.60
2022-11-28T19:31:23.280Z,87.80
2022-11-28T19:34:00.809Z,87.70
2022-11-28T19:36:30.223Z,88.10
2022-11-28T19:38:58.884Z,87.90
2022-11-28T19:41:29.530Z,88.50
2022-11-28T19:43:57.405Z,88.80
2022-11-28T19:46:29.191Z,88.50
2022-11-28T19:48:59.995Z,88.60
2022-11-28T19:51:27.867Z,88.80
2022-11-28T19:54:01.418Z,88.80
2022-11-28T19:56:32.564Z,88.80
2022-11-28T19:59:00.518Z,88.80
2022-11-28T20:01:28.679Z,88.80
2022-11-28T20:03:56.866Z,88.80
2022-11-28T20:06:26.736Z,88.80
2022-11-28T20:08:56.575Z,88.80
2022-11-28T20:11:26.055Z,89.20
2022-11-28T20:13:58.853Z,89.40
2022-11-28T20:16:28.984Z,89.40
2022-11-28T20:18:57.117Z,89.40
2022-11-28T20:21:25.048Z,89.40
2022-11-28T20:23:55.074Z,89.80
2022-11-28T20:26:26.705Z,90.10
2022-11-28T20:28:56.160Z,90.20
2022-11-28T20:31:27.568Z,90.00
2022-11-28T20:33:55.942Z,90.00
2022-11-28T20:36:26.124Z,90.10
2022-11-28T20:38:55.744Z,90.10
2022-11-28T20:41:25.348Z,90.40
2022-11-28T20:43:53.296Z,90.00
2022-11-28T20:46:22.915Z,90.10
2022-11-28T20:48:52.954Z,90.10
2022-11-28T20:51:22.910Z,90.20
2022-11-28T20:53:50.785Z,90.20
2022-11-28T20:56:20.289Z,90.30
2022-11-28T20:58:48.175Z,90.10
2022-11-28T21:01:17.274Z,90.20
2022-11-28T21:03:45.312Z,90.00
2022-11-28T21:06:14.544Z,90.30
2022-11-28T21:08:42.507Z,90.10
2022-11-28T21:11:25.230Z,90.20
2022-11-28T21:14:00.014Z,90.10
2022-11-28T21:16:31.668Z,90.20
2022-11-28T21:19:03.232Z,90.30
2022-11-28T21:21:34.326Z,90.20
2022-11-28T21:24:05.035Z,90.20
2022-11-28T21:26:39.196Z,90.40
2022-11-28T21:29:10.343Z,90.30
2022-11-28T21:31:41.206Z,90.50
2022-11-28T21:34:10.676Z,90.50
2022-11-28T21:36:39.872Z,90.50
2022-11-28T21:39:07.847Z,90.60
2022-11-28T21:41:35.730Z,90.50
2022-11-28T21:44:03.606Z,90.40
2022-11-28T21:46:31.590Z,90.60
2022-11-28T21:48:59.484Z,90.50
2022-11-28T21:51:28.471Z,90.40
2022-11-28T21:53:58.443Z,90.30
2022-11-28T21:56:26.954Z,90.50
2022-11-28T21:58:55.226Z,90.60
2022-11-28T22:01:23.253Z,90.50
2022-11-28T22:03:51.218Z,90.50
2022-11-28T22:06:21.603Z,90.40
2022-11-28T22:08:49.663Z,90.50
2022-11-28T22:11:19.425Z,90.40
2022-11-28T22:13:48.302Z,90.60
2022-11-28T22:16:18.475Z,90.40
2022-11-28T22:18:46.891Z,90.70
2022-11-28T22:24:04.532Z,90.80
2022-11-28T22:26:34.354Z,90.80
2022-11-28T22:29:03.909Z,90.80
2022-11-28T22:31:31.983Z,90.80
2022-11-28T22:34:00.090Z,90.90
2022-11-28T22:36:28.049Z,90.90
2022-11-28T22:38:57.407Z,90.90
2022-11-28T22:41:29.025Z,90.80
2022-11-28T22:44:01.785Z,90.80
2022-11-28T22:46:30.366Z,90.80
2022-11-28T22:49:00.343Z,90.80
2022-11-28T22:51:28.915Z,90.90
2022-11-28T22:53:58.777Z,90.80
2022-11-28T22:56:27.128Z,90.80
2022-11-28T22:58:55.101Z,90.80
2022-11-28T23:01:26.593Z,90.70
2022-11-28T23:03:55.273Z,90.70
2022-11-28T23:06:25.358Z,90.80
2022-11-28T23:08:53.934Z,90.70
2022-11-28T23:11:24.334Z,90.80
2022-11-28T23:13:52.801Z,90.80
2022-11-28T23:16:24.945Z,90.80
2022-11-28T23:18:55.379Z,90.70
2022-11-28T23:21:25.193Z,90.70
2022-11-28T23:23:53.327Z,90.80
2022-11-28T23:26:23.632Z,90.80
2022-11-28T23:28:52.263Z,90.80
2022-11-28T23:31:22.208Z,90.80
2022-11-28T23:33:51.933Z,90.80
2022-11-28T23:36:21.910Z,90.90
2022-11-28T23:38:51.726Z,90.90
2022-11-28T23:41:20.122Z,90.90
2022-11-28T23:43:48.254Z,90.80
2022-11-28T23:46:17.057Z,91.00
2022-11-28T23:48:45.613Z,91.00
2022-11-28T23:51:15.910Z,91.00
2022-11-28T23:53:44.493Z,91.10
2022-11-28T23:56:14.697Z,91.10
2022-11-28T23:58:43.204Z,91.10
